Time;durP1;ratioP1;P1;durP2;ratioP2;P2;SDS_P1;SDS_P2;PMS_P1;PMS_P2;Temp;Humidity;BMP_temperature;BMP_pressure;BME280_temperature;BME280_humidity;BME280_pressure;Samples;Min_cycle;Max_cycle;Signal;HPM_P1;HPM_P2
2022/03/23 00:01:40;;;;;;;34.93;30.30;;;3.60;99.90;;;;;;4975802;28;20845;-70
2022/03/23 00:04:07;;;;;;;35.93;30.90;;;3.50;99.90;;;;;;4991376;28;20478;-71
2022/03/23 00:06:34;;;;;;;37.73;30.23;;;3.50;99.90;;;;;;4989992;28;20500;-71
2022/03/23 00:09:02;;;;;;;33.67;30.33;;;3.60;99.90;;;;;;4987941;28;20466;-70
2022/03/23 00:11:29;;;;;;;37.87;31.17;;;3.60;99.90;;;;;;4992357;28;20477;-70
2022/03/23 00:13:56;;;;;;;45.00;31.90;;;3.70;99.90;;;;;;4987755;28;20839;-70
2022/03/23 00:16:23;;;;;;;43.10;34.80;;;3.70;99.90;;;;;;4989998;28;20505;-70
2022/03/23 00:21:45;;;;;;;36.20;32.07;;;3.80;99.90;;;;;;4989787;28;20537;-71
2022/03/23 00:24:14;;;;;;;45.70;34.13;;;3.90;99.90;;;;;;4996777;28;20463;-70
2022/03/23 00:26:41;;;;;;;36.13;32.30;;;3.80;99.90;;;;;;4993116;28;20458;-71
2022/03/23 00:29:09;;;;;;;34.73;30.80;;;3.60;99.90;;;;;;4990851;28;21194;-71
2022/03/23 00:31:36;;;;;;;36.70;31.80;;;3.60;99.90;;;;;;4992747;28;20969;-71
2022/03/23 00:34:03;;;;;;;37.20;30.27;;;3.50;99.90;;;;;;4991937;28;20486;-71
2022/03/23 00:36:30;;;;;;;35.67;31.53;;;3.40;99.90;;;;;;4993093;28;20485;-71
2022/03/23 00:38:57;;;;;;;37.33;31.77;;;3.40;99.90;;;;;;4991619;28;20466;-70
2022/03/23 00:41:25;;;;;;;37.90;33.10;;;3.50;99.90;;;;;;4994591;28;21278;-71
2022/03/23 00:43:52;;;;;;;41.40;30.60;;;3.50;99.90;;;;;;4994629;28;20474;-71
2022/03/23 00:46:19;;;;;;;36.97;29.57;;;3.40;99.90;;;;;;4994920;28;20843;-71
2022/03/23 00:48:47;;;;;;;40.57;30.77;;;3.30;99.90;;;;;;4993866;28;20459;-71
2022/03/23 00:51:14;;;;;;;33.80;30.20;;;3.20;99.90;;;;;;4990567;28;20565;-71
2022/03/23 00:53:40;;;;;;;41.80;30.47;;;3.20;99.90;;;;;;4990202;28;20540;-70
2022/03/23 00:56:07;;;;;;;33.70;30.10;;;3.20;99.90;;;;;;4996687;28;20466;-70
2022/03/23 00:58:35;;;;;;;41.47;30.50;;;3.20;99.90;;;;;;4994003;28;20467;-71
2022/03/23 01:01:02;;;;;;;33.60;29.50;;;3.20;99.90;;;;;;4989943;28;20462;-71
2022/03/23 01:03:30;;;;;;;41.50;31.50;;;3.20;99.90;;;;;;4990389;28;20494;-70
2022/03/23 01:05:56;;;;;;;37.70;31.00;;;3.30;99.90;;;;;;4996501;28;20541;-71
2022/03/23 01:08:23;;;;;;;34.80;31.30;;;3.30;99.90;;;;;;4982938;28;20467;-71
2022/03/23 01:10:50;;;;;;;35.23;30.90;;;3.30;99.90;;;;;;4990664;28;20470;-70
2022/03/23 01:13:18;;;;;;;34.10;30.70;;;3.30;99.90;;;;;;4991018;28;20463;-70
2022/03/23 01:15:46;;;;;;;38.57;30.00;;;3.30;99.90;;;;;;4995705;28;20466;-71
2022/03/23 01:18:13;;;;;;;37.07;32.70;;;3.30;99.90;;;;;;4995222;28;20559;-71
2022/03/23 01:20:40;;;;;;;37.60;31.30;;;3.20;99.90;;;;;;4989812;28;21035;-71
2022/03/23 01:23:08;;;;;;;37.60;32.77;;;3.20;99.90;;;;;;4993205;28;20466;-71
2022/03/23 01:25:34;;;;;;;35.57;30.00;;;3.20;99.90;;;;;;4988106;28;20973;-70
2022/03/23 01:28:01;;;;;;;38.53;31.10;;;3.20;99.90;;;;;;4991942;28;20457;-70
2022/03/23 01:30:28;;;;;;;36.57;32.50;;;3.20;99.90;;;;;;4993043;28;20478;-71
2022/03/23 01:32:56;;;;;;;37.53;31.70;;;3.10;99.90;;;;;;4988074;28;20472;-70
2022/03/23 01:35:23;;;;;;;36.83;32.93;;;3.20;99.90;;;;;;4988460;28;20491;-71
2022/03/23 01:37:50;;;;;;;46.13;34.63;;;3.20;99.90;;;;;;4995305;28;20490;-70
2022/03/23 01:40:17;;;;;;;38.83;31.70;;;3.20;99.90;;;;;;4995382;28;20490;-70
2022/03/23 01:42:44;;;;;;;36.50;32.57;;;3.30;99.90;;;;;;4990247;28;20869;-70
2022/03/23 01:45:12;;;;;;;37.47;33.43;;;3.30;99.90;;;;;;4988919;28;20467;-70
2022/03/23 01:47:39;;;;;;;41.90;33.20;;;3.30;99.90;;;;;;4989798;28;20565;-71
2022/03/23 01:50:09;;;;;;;40.73;32.10;;;3.20;99.90;;;;;;4989115;28;20466;-70
2022/03/23 01:52:38;;;;;;;37.90;32.60;;;3.30;99.90;;;;;;4988777;28;20462;-70
2022/03/23 01:55:07;;;;;;;35.90;32.17;;;3.30;99.90;;;;;;4987462;28;20846;-70
2022/03/23 01:57:36;;;;;;;33.87;30.10;;;3.30;99.90;;;;;;4989210;28;20946;-70
2022/03/23 02:00:05;;;;;;;32.47;28.90;;;3.20;99.90;;;;;;4991056;28;20462;-70
2022/03/23 02:02:32;;;;;;;38.90;33.40;;;3.10;99.90;;;;;;4992643;28;20466;-71
2022/03/23 02:04:59;;;;;;;40.03;32.07;;;3.00;99.90;;;;;;4993316;28;20550;-71
2022/03/23 02:07:27;;;;;;;49.70;32.67;;;2.90;99.90;;;;;;4989090;28;20821;-71
2022/03/23 02:09:54;;;;;;;40.80;31.67;;;3.00;99.90;;;;;;4985498;28;20471;-71
2022/03/23 02:12:22;;;;;;;37.83;29.97;;;2.90;99.90;;;;;;4989062;28;20454;-70
2022/03/23 02:14:49;;;;;;;39.93;32.73;;;2.90;99.90;;;;;;4986618;28;20474;-71
2022/03/23 02:17:16;;;;;;;51.03;32.77;;;2.90;99.90;;;;;;4987364;28;20498;-70
2022/03/23 02:19:43;;;;;;;56.87;32.80;;;2.90;99.90;;;;;;4985365;28;20553;-70
2022/03/23 02:22:11;;;;;;;43.60;31.47;;;2.90;99.90;;;;;;4990331;28;20469;-70
2022/03/23 02:24:38;;;;;;;46.30;31.17;;;2.80;99.90;;;;;;4988699;28;20663;-71
2022/03/23 02:27:06;;;;;;;33.73;30.13;;;2.70;99.90;;;;;;4990623;28;20463;-70
2022/03/23 02:29:48;;;;;;;34.80;31.07;;;2.60;99.90;;;;;;4994292;28;20494;-70
2022/03/23 02:32:15;;;;;;;33.03;29.60;;;2.50;99.90;;;;;;4989449;28;21046;-70
2022/03/23 02:34:41;;;;;;;39.70;31.27;;;2.50;99.90;;;;;;4990787;28;20487;-70
2022/03/23 02:37:08;;;;;;;41.80;31.33;;;2.50;99.90;;;;;;4989656;28;20482;-70
2022/03/23 02:39:37;;;;;;;61.30;34.33;;;2.50;99.90;;;;;;4988314;28;21109;-70
2022/03/23 02:42:04;;;;;;;50.13;32.63;;;2.40;99.90;;;;;;4990392;28;20482;-70
2022/03/23 02:44:32;;;;;;;42.07;32.13;;;2.40;99.90;;;;;;4988771;28;20474;-70
2022/03/23 02:46:59;;;;;;;43.90;33.27;;;2.50;99.90;;;;;;4988508;28;20488;-70
2022/03/23 02:49:25;;;;;;;44.30;34.57;;;2.50;99.90;;;;;;4987904;28;20496;-70
2022/03/23 02:51:52;;;;;;;38.90;31.10;;;2.50;99.90;;;;;;4988823;28;20918;-70
2022/03/23 03:02:47;;;;;;;41.03;32.33;;;2.40;99.90;;;;;;4991687;28;20960;-71
2022/03/23 03:05:14;;;;;;;41.80;30.77;;;2.50;99.90;;;;;;4991102;28;20835;-70
2022/03/23 03:10:26;;;;;;;41.83;32.00;;;2.20;99.90;;;;;;4993524;28;20540;-71
2022/03/23 03:12:55;;;;;;;51.77;33.00;;;2.20;99.90;;;;;;4996846;28;20501;-70
2022/03/23 03:15:23;;;;;;;33.43;29.83;;;2.20;99.90;;;;;;5000812;28;20523;-70
2022/03/23 03:17:50;;;;;;;34.90;30.57;;;2.20;99.90;;;;;;4992644;28;20730;-70
2022/03/23 03:20:17;;;;;;;52.47;33.33;;;2.10;99.90;;;;;;4997146;28;20476;-70
2022/03/23 03:22:46;;;;;;;45.00;31.07;;;2.00;99.90;;;;;;4993116;28;20863;-70
2022/03/23 03:25:15;;;;;;;46.33;31.67;;;1.80;99.90;;;;;;4991694;28;20465;-71
2022/03/23 03:27:42;;;;;;;48.00;31.13;;;1.80;99.90;;;;;;4989716;28;20549;-71
2022/03/23 03:30:12;;;;;;;43.50;31.47;;;1.70;99.90;;;;;;4994966;28;20462;-70
2022/03/23 03:32:40;;;;;;;35.23;30.87;;;1.70;99.90;;;;;;4994669;28;20573;-71
2022/03/23 03:35:08;;;;;;;53.33;32.10;;;1.70;99.90;;;;;;4991287;28;20486;-70
2022/03/23 03:37:35;;;;;;;47.77;34.07;;;1.60;99.90;;;;;;4990778;28;20492;-70
2022/03/23 03:40:03;;;;;;;48.17;33.70;;;1.60;99.90;;;;;;4990392;28;20462;-70
2022/03/23 03:42:30;;;;;;;67.67;32.90;;;1.60;99.90;;;;;;4990146;28;20991;-70
2022/03/23 03:44:57;;;;;;;46.47;32.10;;;1.50;99.90;;;;;;4989931;28;20521;-70
2022/03/23 03:47:26;;;;;;;38.27;32.50;;;1.50;99.90;;;;;;4991460;28;20477;-70
2022/03/23 03:49:53;;;;;;;55.40;31.17;;;1.50;99.90;;;;;;4996405;28;20856;-70
2022/03/23 03:52:20;;;;;;;37.37;30.93;;;1.50;99.90;;;;;;4991329;28;20458;-70
2022/03/23 03:54:47;;;;;;;38.80;30.67;;;1.60;99.90;;;;;;4989033;28;21027;-70
2022/03/23 03:57:14;;;;;;;42.40;34.23;;;1.50;99.90;;;;;;4993139;28;20478;-70
2022/03/23 03:59:41;;;;;;;43.63;33.37;;;1.50;99.90;;;;;;4995428;28;20475;-70
2022/03/23 04:02:07;;;;;;;53.30;35.90;;;1.50;99.90;;;;;;4995325;28;20488;-71
2022/03/23 04:04:36;;;;;;;38.87;33.87;;;1.50;99.90;;;;;;4992055;28;20474;-70
2022/03/23 04:07:04;;;;;;;42.87;33.70;;;1.60;99.90;;;;;;4989834;28;20844;-70
2022/03/23 04:09:30;;;;;;;45.10;32.73;;;1.60;99.90;;;;;;4991361;28;21139;-70
2022/03/23 04:11:57;;;;;;;44.67;35.50;;;1.60;99.90;;;;;;4996486;28;20471;-70
2022/03/23 04:14:24;;;;;;;43.53;33.40;;;1.60;99.90;;;;;;4989902;28;20467;-70
2022/03/23 04:16:51;;;;;;;42.13;33.20;;;1.60;99.90;;;;;;4991391;28;20835;-70
2022/03/23 04:19:18;;;;;;;45.07;33.03;;;1.50;99.90;;;;;;4991944;28;20501;-70
2022/03/23 04:21:47;;;;;;;56.37;36.30;;;1.40;99.90;;;;;;4991921;28;20536;-70
2022/03/23 04:24:13;;;;;;;43.50;35.03;;;1.40;99.90;;;;;;4995153;28;22622;-70
2022/03/23 04:26:40;;;;;;;39.73;34.00;;;1.40;99.90;;;;;;4991257;28;20470;-70
2022/03/23 04:29:08;;;;;;;42.73;33.73;;;1.30;99.90;;;;;;4994504;28;20470;-70
2022/03/23 04:31:35;;;;;;;46.70;34.80;;;1.30;99.90;;;;;;4989522;28;20474;-70
2022/03/23 04:34:02;;;;;;;57.20;35.87;;;1.30;99.90;;;;;;4995325;28;20490;-71
2022/03/23 04:36:28;;;;;;;37.33;32.73;;;1.40;99.90;;;;;;4988958;28;20506;-69
2022/03/23 04:38:57;;;;;;;38.90;32.23;;;1.40;99.90;;;;;;4987866;28;20863;-70
2022/03/23 04:41:24;;;;;;;47.03;34.80;;;1.40;99.90;;;;;;4991047;28;20490;-69
2022/03/23 04:43:50;;;;;;;37.57;33.50;;;1.30;99.90;;;;;;4991249;28;20469;-69
2022/03/23 04:46:17;;;;;;;51.47;35.73;;;1.20;99.90;;;;;;4989055;28;20467;-69
2022/03/23 04:48:44;;;;;;;42.93;33.37;;;1.20;99.90;;;;;;4994883;28;20471;-69
2022/03/23 04:51:13;;;;;;;52.03;33.90;;;1.30;99.90;;;;;;4986557;28;20471;-69
2022/03/23 04:53:39;;;;;;;58.33;33.63;;;1.30;99.90;;;;;;4992130;28;20549;-69
2022/03/23 04:56:08;;;;;;;48.30;35.87;;;1.30;99.90;;;;;;4995276;28;20469;-70
2022/03/23 04:58:35;;;;;;;37.97;32.57;;;1.20;99.90;;;;;;4995239;28;20509;-69
2022/03/23 05:01:02;;;;;;;40.80;34.40;;;1.20;99.90;;;;;;4986882;28;20477;-69
2022/03/23 05:03:29;;;;;;;41.30;34.30;;;1.20;99.90;;;;;;4967350;28;20470;-69
2022/03/23 05:05:56;;;;;;;47.93;34.23;;;1.20;99.90;;;;;;4966688;28;20490;-69
2022/03/23 05:08:23;;;;;;;36.93;31.80;;;1.20;99.90;;;;;;4965767;28;21142;-69
2022/03/23 05:10:50;;;;;;;37.60;32.93;;;1.20;99.90;;;;;;4967194;28;20816;-69
2022/03/23 05:13:18;;;;;;;39.53;33.80;;;1.20;99.90;;;;;;4966728;28;20494;-71
2022/03/23 05:15:45;;;;;;;41.73;33.57;;;1.20;99.90;;;;;;4967610;28;20479;-71
2022/03/23 05:18:12;;;;;;;41.00;34.00;;;1.10;99.90;;;;;;4966679;28;20584;-70
2022/03/23 05:20:39;;;;;;;44.70;34.57;;;1.00;99.90;;;;;;4967393;28;20480;-71
2022/03/23 05:23:09;;;;;;;44.77;33.87;;;0.90;99.90;;;;;;4968695;28;20478;-70
2022/03/23 05:25:36;;;;;;;39.40;31.57;;;0.90;99.90;;;;;;4968396;28;20458;-71
2022/03/23 05:28:06;;;;;;;38.50;33.53;;;0.90;99.90;;;;;;4965048;28;20980;-70
2022/03/23 05:30:34;;;;;;;47.57;35.20;;;1.00;99.90;;;;;;4967122;28;20462;-70
2022/03/23 05:33:02;;;;;;;40.70;34.33;;;1.00;99.90;;;;;;4966803;28;20467;-70
2022/03/23 05:35:29;;;;;;;39.37;34.90;;;1.00;99.90;;;;;;4967557;28;20494;-70
2022/03/23 05:37:56;;;;;;;42.63;34.20;;;1.00;99.90;;;;;;4966757;28;20490;-70
2022/03/23 05:40:23;;;;;;;44.13;32.83;;;0.90;99.90;;;;;;4966411;28;20482;-70
2022/03/23 05:42:51;;;;;;;42.73;33.40;;;0.90;99.90;;;;;;4967112;28;20466;-69
2022/03/23 05:45:17;;;;;;;41.87;32.40;;;0.90;99.90;;;;;;4966601;28;20478;-70
2022/03/23 05:47:46;;;;;;;39.40;34.90;;;0.90;99.90;;;;;;4966894;28;20484;-70
2022/03/23 05:50:12;;;;;;;37.87;33.43;;;0.90;99.90;;;;;;4968822;28;20478;-69
2022/03/23 05:52:40;;;;;;;34.27;30.50;;;0.60;99.90;;;;;;4965732;28;20478;-70
2022/03/23 05:55:08;;;;;;;37.97;33.87;;;0.50;99.90;;;;;;4966687;28;20496;-70
2022/03/23 05:57:37;;;;;;;37.53;33.63;;;0.50;99.90;;;;;;4966142;28;21189;-70
2022/03/23 06:00:05;;;;;;;39.10;34.90;;;0.40;99.90;;;;;;4966046;28;20574;-69
2022/03/23 06:02:32;;;;;;;41.20;35.30;;;0.40;99.90;;;;;;4965442;28;20466;-69
2022/03/23 06:05:00;;;;;;;43.47;35.57;;;0.50;99.90;;;;;;4966260;28;20465;-70
2022/03/23 06:07:27;;;;;;;42.07;33.13;;;0.60;99.90;;;;;;4964676;28;20497;-70
2022/03/23 06:09:53;;;;;;;39.17;35.10;;;0.60;99.90;;;;;;4963521;28;21148;-70
2022/03/23 06:12:21;;;;;;;43.30;35.03;;;0.70;99.90;;;;;;4964760;28;20470;-69
2022/03/23 06:14:47;;;;;;;44.33;37.40;;;0.80;99.90;;;;;;4954728;28;20470;-69
2022/03/23 06:17:14;;;;;;;43.73;35.40;;;0.90;99.90;;;;;;4956070;28;20471;-69
2022/03/23 06:19:41;;;;;;;45.10;36.27;;;0.90;99.90;;;;;;4956102;28;21222;-69
2022/03/23 06:22:09;;;;;;;41.57;34.40;;;1.00;99.90;;;;;;4961741;28;20466;-69
2022/03/23 06:24:36;;;;;;;41.20;36.63;;;1.20;99.90;;;;;;4961445;28;20463;-69
2022/03/23 06:27:04;;;;;;;47.50;35.80;;;1.40;99.90;;;;;;4961497;28;20473;-70
2022/03/23 06:29:30;;;;;;;50.20;37.57;;;1.50;99.90;;;;;;4961135;28;20472;-69
2022/03/23 06:31:57;;;;;;;41.23;36.27;;;1.60;99.90;;;;;;4961452;28;20479;-69
2022/03/23 06:34:24;;;;;;;57.10;38.73;;;1.80;99.90;;;;;;4961710;28;20944;-69
2022/03/23 06:36:51;;;;;;;50.07;40.43;;;1.90;99.90;;;;;;4962621;28;20487;-69
2022/03/23 06:39:19;;;;;;;46.80;39.53;;;2.00;99.90;;;;;;4943274;28;20497;-68
2022/03/23 06:41:46;;;;;;;42.67;37.83;;;2.20;99.90;;;;;;4961516;28;20494;-69
2022/03/23 06:44:13;;;;;;;47.60;36.37;;;2.30;99.90;;;;;;4960806;28;20473;-70
2022/03/23 06:46:40;;;;;;;41.33;33.93;;;2.30;99.90;;;;;;4959298;28;20477;-69
2022/03/23 06:49:07;;;;;;;42.37;33.60;;;2.30;99.90;;;;;;4967636;28;20477;-69
2022/03/23 06:51:34;;;;;;;43.17;35.87;;;2.30;99.90;;;;;;4979643;28;20477;-69
2022/03/23 06:54:01;;;;;;;38.53;34.33;;;2.30;99.90;;;;;;4977536;28;20481;-70
2022/03/23 06:56:29;;;;;;;48.07;34.10;;;2.40;99.90;;;;;;4980061;28;20498;-69
2022/03/23 06:58:57;;;;;;;48.37;36.97;;;2.50;99.90;;;;;;4965888;28;20544;-69
2022/03/23 07:01:24;;;;;;;49.67;39.53;;;2.70;99.90;;;;;;4955847;28;21016;-69
2022/03/23 07:03:51;;;;;;;43.67;38.93;;;2.90;99.90;;;;;;4958135;28;20462;-69
2022/03/23 07:06:17;;;;;;;43.27;37.63;;;3.10;99.90;;;;;;4959149;28;20462;-69
2022/03/23 07:11:30;;;;;;;54.57;36.20;;;3.30;99.90;;;;;;4960559;28;20460;-70
2022/03/23 07:13:57;;;;;;;49.40;38.70;;;3.50;99.90;;;;;;4957948;28;20470;-70
2022/03/23 07:16:24;;;;;;;47.47;39.57;;;3.60;99.90;;;;;;4957389;28;20478;-70
2022/03/23 07:18:51;;;;;;;49.00;38.87;;;3.70;99.90;;;;;;4958841;28;20856;-70
2022/03/23 07:21:18;;;;;;;58.57;40.70;;;3.80;99.90;;;;;;4960160;28;20470;-70
2022/03/23 07:23:45;;;;;;;44.93;37.67;;;4.00;99.90;;;;;;4960125;28;21189;-71
2022/03/23 07:26:12;;;;;;;58.17;40.40;;;4.20;99.90;;;;;;4960352;28;20470;-70
2022/03/23 07:28:40;;;;;;;47.87;38.87;;;4.40;99.90;;;;;;4959758;28;20953;-71
2022/03/23 07:31:08;;;;;;;69.40;42.40;;;4.60;99.90;;;;;;4953201;28;20506;-70
2022/03/23 07:33:35;;;;;;;48.67;40.40;;;4.90;99.90;;;;;;4956233;28;20463;-70
2022/03/23 07:36:02;;;;;;;52.33;40.40;;;5.10;99.90;;;;;;4957998;28;20554;-70
2022/03/23 07:38:29;;;;;;;54.23;41.07;;;5.30;99.90;;;;;;4957112;28;20496;-70
2022/03/23 07:40:55;;;;;;;64.77;40.67;;;5.40;99.90;;;;;;4956913;28;20488;-70
2022/03/23 07:43:22;;;;;;;53.03;39.63;;;5.60;99.90;;;;;;4957449;28;20933;-70
2022/03/23 07:45:50;;;;;;;45.93;37.37;;;5.70;99.90;;;;;;4957791;28;20564;-70
2022/03/23 07:48:17;;;;;;;52.27;38.90;;;5.90;99.90;;;;;;4956343;28;21726;-69
2022/03/23 07:50:44;;;;;;;48.93;37.03;;;6.10;99.90;;;;;;4953335;28;20482;-70
2022/03/23 07:53:12;;;;;;;60.80;38.30;;;6.20;99.90;;;;;;4968162;28;20478;-70
2022/03/23 07:55:38;;;;;;;48.00;39.43;;;6.40;99.90;;;;;;4964691;28;20446;-70
2022/03/23 07:58:05;;;;;;;60.60;38.27;;;6.50;99.90;;;;;;4963354;28;20515;-71
2022/03/23 08:00:32;;;;;;;54.93;38.00;;;6.70;99.90;;;;;;4963099;28;20508;-70
2022/03/23 08:03:00;;;;;;;59.90;37.20;;;6.90;99.90;;;;;;4963058;28;20488;-71
2022/03/23 08:05:28;;;;;;;51.70;37.00;;;7.00;99.90;;;;;;4964474;28;20470;-70
2022/03/23 08:07:55;;;;;;;55.37;36.10;;;7.20;99.90;;;;;;4965425;28;21014;-70
2022/03/23 08:10:22;;;;;;;49.23;36.43;;;7.30;99.90;;;;;;4963610;28;20473;-70
2022/03/23 08:12:50;;;;;;;52.40;36.50;;;7.50;99.90;;;;;;4965095;28;20478;-70
2022/03/23 08:15:17;;;;;;;53.80;36.87;;;7.60;99.90;;;;;;4965004;28;20467;-71
2022/03/23 08:17:44;;;;;;;52.50;36.87;;;7.80;99.90;;;;;;4965056;28;21433;-70
2022/03/23 08:23:04;;;;;;;49.00;34.80;;;8.10;99.90;;;;;;4946443;28;20609;-70
2022/03/23 08:25:31;;;;;;;45.17;33.63;;;8.30;99.90;;;;;;4964203;28;20469;-71
2022/03/23 08:27:59;;;;;;;49.50;33.70;;;8.40;99.90;;;;;;4985381;28;20839;-70
2022/03/23 08:30:27;;;;;;;43.23;35.50;;;8.60;99.90;;;;;;4985110;28;20608;-71
2022/03/23 08:32:54;;;;;;;44.00;34.57;;;8.70;99.90;;;;;;4963709;28;20489;-70
2022/03/23 08:35:23;;;;;;;37.70;31.50;;;9.00;99.90;;;;;;4964472;28;21070;-70
2022/03/23 08:37:50;;;;;;;41.20;33.70;;;9.20;99.90;;;;;;4986847;28;20965;-71
2022/03/23 08:40:18;;;;;;;40.53;33.10;;;9.40;99.90;;;;;;4986007;28;20486;-70
2022/03/23 08:42:45;;;;;;;47.70;32.50;;;9.60;99.90;;;;;;4986032;28;20470;-71
2022/03/23 08:45:12;;;;;;;46.47;32.40;;;9.70;99.90;;;;;;4979041;28;20583;-71
2022/03/23 08:47:40;;;;;;;47.77;33.23;;;9.90;99.90;;;;;;4964644;28;20478;-71
2022/03/23 08:50:09;;;;;;;39.27;32.97;;;10.10;99.90;;;;;;4964831;28;20554;-71
2022/03/23 08:52:38;;;;;;;38.30;32.60;;;10.20;99.90;;;;;;4969792;28;20466;-71
2022/03/23 08:55:07;;;;;;;65.37;33.60;;;10.40;99.90;;;;;;4972456;28;20854;-70
2022/03/23 08:57:35;;;;;;;44.07;31.60;;;10.60;99.90;;;;;;4980968;28;20492;-70
2022/03/23 09:00:02;;;;;;;42.37;33.40;;;10.70;99.90;;;;;;4980372;28;20497;-70
2022/03/23 09:02:29;;;;;;;38.87;31.50;;;10.90;99.90;;;;;;4964017;28;20467;-70
2022/03/23 09:04:56;;;;;;;37.13;32.53;;;11.10;99.90;;;;;;4957653;28;20469;-70
2022/03/23 09:07:23;;;;;;;45.23;32.80;;;11.20;99.90;;;;;;4947690;28;21016;-70
2022/03/23 09:09:51;;;;;;;51.23;33.07;;;11.40;99.90;;;;;;4953245;28;20471;-70
2022/03/23 09:12:18;;;;;;;38.47;34.30;;;11.70;99.90;;;;;;4975139;28;20594;-70
2022/03/23 09:14:45;;;;;;;49.53;33.50;;;11.80;99.90;;;;;;4957629;28;21006;-69
2022/03/23 09:17:12;;;;;;;37.23;32.40;;;12.00;99.90;;;;;;4956582;28;21006;-70
2022/03/23 09:19:39;;;;;;;36.77;31.57;;;12.20;99.90;;;;;;4956759;28;20502;-70
2022/03/23 09:22:07;;;;;;;39.30;33.13;;;12.30;99.90;;;;;;4958477;28;20471;-70
2022/03/23 09:24:34;;;;;;;44.50;33.73;;;12.40;99.90;;;;;;4961844;28;20500;-70
2022/03/23 09:27:02;;;;;;;36.00;31.37;;;12.50;99.90;;;;;;4961783;28;20462;-70
2022/03/23 09:29:29;;;;;;;36.17;32.27;;;12.70;99.90;;;;;;4962959;28;21331;-69
2022/03/23 09:31:56;;;;;;;44.67;33.23;;;12.90;99.90;;;;;;4973769;28;20478;-71
2022/03/23 09:34:23;;;;;;;39.23;32.47;;;13.00;99.90;;;;;;4967177;28;20588;-72
2022/03/23 09:39:34;;;;;;;41.30;33.43;;;13.40;99.90;;;;;;4959915;28;20498;-71
2022/03/23 09:42:06;;;;;;;36.70;32.80;;;14.00;99.60;;;;;;4961565;28;20499;-70
2022/03/23 09:44:34;;;;;;;34.30;30.80;;;14.90;97.30;;;;;;4960743;28;20521;-70
2022/03/23 09:47:05;;;;;;;35.30;30.27;;;16.20;94.40;;;;;;4961425;28;20844;-70
2022/03/23 09:49:32;;;;;;;40.07;33.00;;;17.30;92.90;;;;;;4959932;28;20901;-70
2022/03/23 09:52:14;;;;;;;34.40;30.83;;;18.40;91.50;;;;;;4961110;28;20477;-70
2022/03/23 09:54:42;;;;;;;34.70;30.93;;;19.30;87.00;;;;;;4960544;28;20470;-71
2022/03/23 09:57:10;;;;;;;37.47;30.30;;;19.50;78.90;;;;;;4961075;28;20458;-71
2022/03/23 09:59:37;;;;;;;34.33;30.60;;;20.10;77.70;;;;;;4960797;28;20486;-71
2022/03/23 10:02:37;;;;;;;41.43;32.27;;;20.80;77.30;;;;;;4959827;28;20458;-71
2022/03/23 10:05:48;;;;;;;36.63;32.90;;;21.10;70.50;;;;;;4979326;28;20498;-71
2022/03/23 10:08:46;;;;;;;34.93;31.20;;;21.60;65.80;;;;;;4978603;28;21176;-70
2022/03/23 10:12:04;;;;;;;35.90;31.77;;;22.10;64.20;;;;;;4963467;28;20473;-71
2022/03/23 10:15:23;;;;;;;36.23;32.40;;;21.50;59.80;;;;;;4959070;28;20458;-71
2022/03/23 10:18:23;;;;;;;47.30;33.67;;;21.30;60.40;;;;;;4958108;28;20478;-70
2022/03/23 10:20:49;;;;;;;38.00;32.73;;;21.90;61.00;;;;;;4940645;28;20486;-71
2022/03/23 10:23:21;;;;;;;44.47;33.83;;;22.30;59.30;;;;;;4958539;28;20492;-71
2022/03/23 10:25:48;;;;;;;43.30;32.40;;;22.60;57.00;;;;;;4958290;28;20467;-71
2022/03/23 10:28:16;;;;;;;34.87;31.33;;;22.70;57.60;;;;;;4958805;28;21060;-70
2022/03/23 10:30:46;;;;;;;40.60;33.90;;;21.80;55.80;;;;;;4957922;28;20471;-70
2022/03/23 10:33:20;;;;;;;37.80;33.40;;;21.80;56.80;;;;;;4957703;28;20462;-71
2022/03/23 10:35:47;;;;;;;41.50;32.87;;;22.20;56.40;;;;;;4957941;28;20518;-70
2022/03/23 10:38:15;;;;;;;37.50;31.70;;;22.10;56.40;;;;;;4959423;28;20510;-71
2022/03/23 10:40:43;;;;;;;45.10;33.10;;;22.70;57.10;;;;;;4959636;28;20916;-70
2022/03/23 10:43:11;;;;;;;41.60;32.40;;;23.00;55.10;;;;;;4958335;28;20545;-69
2022/03/23 10:45:38;;;;;;;40.67;31.90;;;23.60;54.40;;;;;;4957193;28;20692;-71
2022/03/23 10:48:13;;;;;;;35.57;31.87;;;24.00;53.70;;;;;;4957178;28;21164;-71
2022/03/23 10:50:51;;;;;;;35.23;31.20;;;24.00;49.70;;;;;;4957141;28;21054;-71
2022/03/23 10:53:18;;;;;;;36.67;32.17;;;23.70;47.30;;;;;;4959547;28;20957;-71
2022/03/23 10:55:49;;;;;;;37.83;30.70;;;23.50;47.60;;;;;;4959134;28;20475;-71
2022/03/23 10:58:21;;;;;;;35.87;31.70;;;23.20;47.60;;;;;;4962890;28;20512;-71
2022/03/23 11:00:49;;;;;;;35.60;31.77;;;23.70;46.50;;;;;;4970674;28;20486;-70
2022/03/23 11:03:17;;;;;;;37.23;31.80;;;24.20;45.00;;;;;;4954153;28;20466;-71
2022/03/23 11:05:46;;;;;;;35.27;31.77;;;24.30;44.80;;;;;;4970338;28;20489;-71
2022/03/23 11:08:15;;;;;;;35.70;32.13;;;25.10;44.20;;;;;;4955851;28;20477;-71
2022/03/23 11:16:26;;;;;;;36.93;32.97;;;23.30;42.90;;;;;;4968479;28;20561;-70
2022/03/23 11:18:59;;;;;;;35.53;32.17;;;23.10;41.80;;;;;;4968059;28;21461;-71
2022/03/23 11:21:28;;;;;;;34.97;31.70;;;23.60;42.00;;;;;;4953564;28;20990;-71
2022/03/23 11:23:55;;;;;;;37.60;33.77;;;24.30;40.90;;;;;;4946491;28;20530;-71
2022/03/23 11:26:22;;;;;;;35.37;32.13;;;24.30;40.40;;;;;;4954530;28;20458;-71
2022/03/23 11:28:51;;;;;;;35.23;32.13;;;24.40;38.50;;;;;;4954886;28;20599;-72
2022/03/23 11:31:17;;;;;;;36.23;33.03;;;24.90;40.20;;;;;;4958475;28;20473;-70
2022/03/23 11:33:48;;;;;;;34.50;31.23;;;25.10;38.90;;;;;;4960347;28;21076;-71
2022/03/23 11:36:19;;;;;;;36.70;33.30;;;25.10;37.60;;;;;;4961564;28;20463;-71
2022/03/23 11:38:49;;;;;;;34.17;30.97;;;24.80;37.00;;;;;;4959845;28;20554;-72
2022/03/23 11:41:17;;;;;;;36.97;33.27;;;24.90;37.20;;;;;;4959213;28;20497;-71
2022/03/23 11:43:44;;;;;;;37.63;33.90;;;25.30;37.80;;;;;;4958096;28;20922;-72
2022/03/23 11:46:12;;;;;;;36.23;32.93;;;25.90;37.50;;;;;;4959628;28;20475;-72
2022/03/23 11:49:01;;;;;;;35.37;31.93;;;25.60;36.00;;;;;;4962176;28;22507;-71
2022/03/23 11:51:55;;;;;;;35.70;32.43;;;25.50;35.70;;;;;;4947931;28;20462;-72
2022/03/23 11:54:28;;;;;;;35.13;32.03;;;25.30;35.70;;;;;;4961412;28;20455;-71
2022/03/23 11:56:57;;;;;;;41.53;34.07;;;24.50;35.70;;;;;;4961613;28;20766;-71
2022/03/23 11:59:25;;;;;;;39.23;35.00;;;25.30;36.10;;;;;;4960439;28;20478;-72
2022/03/23 12:01:52;;;;;;;38.90;34.10;;;26.10;35.80;;;;;;4959012;28;21065;-72
2022/03/23 12:04:21;;;;;;;39.63;35.00;;;26.10;36.20;;;;;;4962569;28;21042;-72
2022/03/23 12:06:57;;;;;;;36.67;33.17;;;25.30;36.60;;;;;;4961465;28;20478;-71
2022/03/23 12:09:33;;;;;;;38.87;32.87;;;25.10;35.90;;;;;;4962400;28;20559;-71
2022/03/23 12:12:00;;;;;;;36.83;32.97;;;25.20;36.70;;;;;;4961753;28;20816;-71
2022/03/23 12:14:29;;;;;;;35.20;31.80;;;25.00;36.30;;;;;;4957393;28;20466;-72
2022/03/23 12:17:08;;;;;;;36.67;33.30;;;25.50;36.30;;;;;;4958746;28;20466;-71
2022/03/23 12:19:53;;;;;;;35.43;32.23;;;25.60;36.60;;;;;;4959137;28;21046;-72
2022/03/23 12:22:41;;;;;;;35.93;32.10;;;25.30;35.20;;;;;;4961484;28;20474;-72
2022/03/23 12:25:11;;;;;;;36.00;32.03;;;25.20;35.50;;;;;;4961172;28;20475;-72
2022/03/23 12:27:44;;;;;;;34.03;30.77;;;25.10;36.40;;;;;;4961100;28;20478;-72
2022/03/23 12:30:16;;;;;;;34.50;31.30;;;25.50;36.40;;;;;;4960634;28;20469;-72
2022/03/23 12:32:43;;;;;;;32.77;29.77;;;24.90;34.10;;;;;;4959649;28;20459;-71
2022/03/23 12:35:09;;;;;;;35.27;31.43;;;24.90;33.40;;;;;;4960829;28;20492;-71
2022/03/23 12:37:39;;;;;;;35.50;31.80;;;24.70;34.70;;;;;;4959858;28;20973;-71
2022/03/23 12:40:11;;;;;;;33.97;30.83;;;24.30;34.50;;;;;;4960003;28;20497;-70
2022/03/23 12:42:42;;;;;;;34.53;31.33;;;24.80;34.30;;;;;;4957526;28;20700;-71
2022/03/23 12:45:16;;;;;;;35.10;30.83;;;24.90;34.50;;;;;;4959426;28;20553;-71
2022/03/23 12:47:55;;;;;;;34.07;30.70;;;24.40;34.30;;;;;;4979652;28;20467;-72
2022/03/23 12:58:49;;;;;;;34.93;31.53;;;26.20;31.90;;;;;;4960210;28;22571;-72
2022/03/23 13:01:17;;;;;;;33.67;30.37;;;26.80;31.10;;;;;;4957920;28;20513;-71
2022/03/23 13:03:54;;;;;;;33.83;30.63;;;27.50;30.80;;;;;;4954603;28;20471;-71
2022/03/23 13:06:32;;;;;;;33.57;30.43;;;26.90;32.30;;;;;;4958266;28;20990;-71
2022/03/23 13:09:01;;;;;;;33.13;30.03;;;26.50;30.00;;;;;;4956517;28;20484;-71
2022/03/23 13:11:29;;;;;;;31.23;28.33;;;26.00;31.00;;;;;;4958446;28;20507;-72
2022/03/23 13:13:58;;;;;;;30.60;27.60;;;26.10;30.20;;;;;;4958498;28;20503;-71
2022/03/23 13:16:26;;;;;;;31.03;27.83;;;26.50;29.50;;;;;;4956724;28;20549;-71
2022/03/23 13:18:58;;;;;;;31.90;28.70;;;26.50;28.60;;;;;;4959009;28;20474;-72